Terminal Aerodrome Forecast
Issued by NWS

Home | Current Version | Previous Version | Text Only | Print | Product List | Glossary On
Versions: 1 2 3 4 5 6 7 8 9 10 11 12
000
FTUS44 KEPZ 240520
TAFLRU
TAF
KLRU 240520Z 2406/2506 14006KT P6SM SKC
     FM240900 25008KT P6SM SCT250
     FM241700 25015G25KT P6SM SKC
     FM242000 25024G34KT P6SM SKC
      TEMPO 2420/2424 2SM BLDU
     FM250300 25018G28KT P6SM SKC=

USA.gov is the U.S. government's official web portal to all federal, state and local government web resources and services.